sensor_id;sensor_type;location;lat;lon;timestamp;temperature;humidity
8914;DHT22;4492;48.736;9.092;2023-09-19T00:01:08;15.10;99.90
8914;DHT22;4492;48.736;9.092;2023-09-19T00:03:34;15.10;99.90
8914;DHT22;4492;48.736;9.092;2023-09-19T00:06:03;15.00;99.90
8914;DHT22;4492;48.736;9.092;2023-09-19T00:08:30;15.10;99.90
8914;DHT22;4492;48.736;9.092;2023-09-19T00:10:56;15.00;99.90
8914;DHT22;4492;48.736;9.092;2023-09-19T00:13:21;15.00;99.90
8914;DHT22;4492;48.736;9.092;2023-09-19T00:15:48;14.90;99.90
8914;DHT22;4492;48.736;9.092;2023-09-19T00:18:20;14.90;99.90
8914;DHT22;4492;48.736;9.092;2023-09-19T00:20:57;14.90;99.90
8914;DHT22;4492;48.736;9.092;2023-09-19T00:23:22;14.90;99.90
8914;DHT22;4492;48.736;9.092;2023-09-19T00:25:50;14.90;99.90
8914;DHT22;4492;48.736;9.092;2023-09-19T00:28:16;14.90;99.90
8914;DHT22;4492;48.736;9.092;2023-09-19T00:30:43;14.80;99.90
8914;DHT22;4492;48.736;9.092;2023-09-19T00:33:08;14.80;99.90
8914;DHT22;4492;48.736;9.092;2023-09-19T00:35:36;14.80;99.90
8914;DHT22;4492;48.736;9.092;2023-09-19T00:38:02;14.80;99.90
8914;DHT22;4492;48.736;9.092;2023-09-19T00:40:28;14.80;99.90
8914;DHT22;4492;48.736;9.092;2023-09-19T00:42:58;14.80;99.90
8914;DHT22;4492;48.736;9.092;2023-09-19T00:45:26;14.80;99.90
8914;DHT22;4492;48.736;9.092;2023-09-19T00:47:52;14.80;99.90
8914;DHT22;4492;48.736;9.092;2023-09-19T00:50:21;14.70;99.90
8914;DHT22;4492;48.736;9.092;2023-09-19T00:52:49;14.70;99.90
8914;DHT22;4492;48.736;9.092;2023-09-19T00:55:16;14.70;99.90
8914;DHT22;4492;48.736;9.092;2023-09-19T00:57:45;14.70;99.90
8914;DHT22;4492;48.736;9.092;2023-09-19T01:00:11;14.70;99.90
8914;DHT22;4492;48.736;9.092;2023-09-19T01:02:44;14.70;99.90
8914;DHT22;4492;48.736;9.092;2023-09-19T01:05:10;14.70;99.90
8914;DHT22;4492;48.736;9.092;2023-09-19T01:07:36;14.70;99.90
8914;DHT22;4492;48.736;9.092;2023-09-19T01:10:06;14.70;99.90
8914;DHT22;4492;48.736;9.092;2023-09-19T01:13:00;14.80;99.90
8914;DHT22;4492;48.736;9.092;2023-09-19T01:18:35;14.70;99.90
8914;DHT22;4492;48.736;9.092;2023-09-19T01:21:15;14.70;99.90
8914;DHT22;4492;48.736;9.092;2023-09-19T01:29:48;14.70;99.90
8914;DHT22;4492;48.736;9.092;2023-09-19T01:32:17;14.60;99.90
8914;DHT22;4492;48.736;9.092;2023-09-19T01:34:52;14.60;99.90
8914;DHT22;4492;48.736;9.092;2023-09-19T01:37:19;14.70;99.90
8914;DHT22;4492;48.736;9.092;2023-09-19T01:39:51;14.70;99.90
8914;DHT22;4492;48.736;9.092;2023-09-19T01:42:23;14.70;99.90
8914;DHT22;4492;48.736;9.092;2023-09-19T01:47:49;14.70;99.90
8914;DHT22;4492;48.736;9.092;2023-09-19T01:50:30;14.70;99.90
8914;DHT22;4492;48.736;9.092;2023-09-19T01:53:33;14.80;99.90
8914;DHT22;4492;48.736;9.092;2023-09-19T01:55:54;14.80;99.90
8914;DHT22;4492;48.736;9.092;2023-09-19T01:58:34;14.70;99.90
8914;DHT22;4492;48.736;9.092;2023-09-19T02:01:04;14.70;99.90
8914;DHT22;4492;48.736;9.092;2023-09-19T02:03:31;14.70;99.90
8914;DHT22;4492;48.736;9.092;2023-09-19T02:05:58;14.60;99.90
8914;DHT22;4492;48.736;9.092;2023-09-19T02:08:24;14.60;99.90
8914;DHT22;4492;48.736;9.092;2023-09-19T02:10:50;14.50;99.90
8914;DHT22;4492;48.736;9.092;2023-09-19T02:13:17;14.50;99.90
8914;DHT22;4492;48.736;9.092;2023-09-19T02:15:43;14.40;99.90
8914;DHT22;4492;48.736;9.092;2023-09-19T02:18:10;14.40;99.90
8914;DHT22;4492;48.736;9.092;2023-09-19T02:20:37;14.30;99.90
8914;DHT22;4492;48.736;9.092;2023-09-19T02:23:03;14.30;99.90
8914;DHT22;4492;48.736;9.092;2023-09-19T02:25:28;14.20;99.90
8914;DHT22;4492;48.736;9.092;2023-09-19T02:27:54;14.20;99.90
8914;DHT22;4492;48.736;9.092;2023-09-19T02:30:22;14.20;99.90
8914;DHT22;4492;48.736;9.092;2023-09-19T02:32:51;14.10;99.90
8914;DHT22;4492;48.736;9.092;2023-09-19T02:35:17;14.00;99.90
8914;DHT22;4492;48.736;9.092;2023-09-19T02:37:45;14.00;99.90
8914;DHT22;4492;48.736;9.092;2023-09-19T02:40:11;14.00;99.90
8914;DHT22;4492;48.736;9.092;2023-09-19T02:42:47;14.00;99.90
8914;DHT22;4492;48.736;9.092;2023-09-19T02:45:18;14.00;99.90
8914;DHT22;4492;48.736;9.092;2023-09-19T02:47:44;14.00;99.90
8914;DHT22;4492;48.736;9.092;2023-09-19T02:50:10;13.90;99.90
8914;DHT22;4492;48.736;9.092;2023-09-19T02:52:42;14.00;99.90
8914;DHT22;4492;48.736;9.092;2023-09-19T02:55:14;13.90;99.90
8914;DHT22;4492;48.736;9.092;2023-09-19T02:58:03;14.00;99.90
8914;DHT22;4492;48.736;9.092;2023-09-19T03:00:30;14.00;99.90
8914;DHT22;4492;48.736;9.092;2023-09-19T03:02:56;14.10;99.90
8914;DHT22;4492;48.736;9.092;2023-09-19T03:05:23;14.10;99.90
8914;DHT22;4492;48.736;9.092;2023-09-19T03:07:49;14.20;99.90
8914;DHT22;4492;48.736;9.092;2023-09-19T03:10:19;14.20;99.90
8914;DHT22;4492;48.736;9.092;2023-09-19T03:12:46;14.20;99.90
8914;DHT22;4492;48.736;9.092;2023-09-19T03:15:12;14.30;99.90
8914;DHT22;4492;48.736;9.092;2023-09-19T03:17:37;14.30;99.90
8914;DHT22;4492;48.736;9.092;2023-09-19T03:20:08;14.40;99.90
8914;DHT22;4492;48.736;9.092;2023-09-19T03:22:35;14.40;99.90
8914;DHT22;4492;48.736;9.092;2023-09-19T03:25:00;14.40;99.90
8914;DHT22;4492;48.736;9.092;2023-09-19T03:27:26;14.50;99.90
8914;DHT22;4492;48.736;9.092;2023-09-19T03:29:52;14.50;99.90
8914;DHT22;4492;48.736;9.092;2023-09-19T03:32:19;14.50;99.90
8914;DHT22;4492;48.736;9.092;2023-09-19T03:34:44;14.50;99.90
8914;DHT22;4492;48.736;9.092;2023-09-19T03:37:10;14.50;99.90
8914;DHT22;4492;48.736;9.092;2023-09-19T03:39:35;14.60;99.90
8914;DHT22;4492;48.736;9.092;2023-09-19T03:42:01;14.60;99.90
8914;DHT22;4492;48.736;9.092;2023-09-19T03:44:28;14.60;99.90
8914;DHT22;4492;48.736;9.092;2023-09-19T03:46:53;14.60;99.90
8914;DHT22;4492;48.736;9.092;2023-09-19T03:49:20;14.60;99.90
8914;DHT22;4492;48.736;9.092;2023-09-19T03:51:46;14.60;99.90
8914;DHT22;4492;48.736;9.092;2023-09-19T03:54:11;14.60;99.90
8914;DHT22;4492;48.736;9.092;2023-09-19T03:56:38;14.60;99.90
8914;DHT22;4492;48.736;9.092;2023-09-19T03:59:03;14.60;99.90
8914;DHT22;4492;48.736;9.092;2023-09-19T04:01:29;14.60;99.90
8914;DHT22;4492;48.736;9.092;2023-09-19T04:03:57;14.50;99.90
8914;DHT22;4492;48.736;9.092;2023-09-19T04:06:23;14.50;99.90
8914;DHT22;4492;48.736;9.092;2023-09-19T04:08:48;14.40;99.90
8914;DHT22;4492;48.736;9.092;2023-09-19T04:11:14;14.40;99.90
8914;DHT22;4492;48.736;9.092;2023-09-19T04:13:40;14.30;99.90
8914;DHT22;4492;48.736;9.092;2023-09-19T04:16:05;14.30;99.90
8914;DHT22;4492;48.736;9.092;2023-09-19T04:18:32;14.30;99.90
8914;DHT22;4492;48.736;9.092;2023-09-19T04:20:59;14.20;99.90
8914;DHT22;4492;48.736;9.092;2023-09-19T04:23:28;14.20;99.90
8914;DHT22;4492;48.736;9.092;2023-09-19T04:25:53;14.20;99.90
8914;DHT22;4492;48.736;9.092;2023-09-19T04:28:19;14.30;99.90
8914;DHT22;4492;48.736;9.092;2023-09-19T04:30:44;14.30;99.90
8914;DHT22;4492;48.736;9.092;2023-09-19T04:33:10;14.40;99.90
8914;DHT22;4492;48.736;9.092;2023-09-19T04:35:36;14.50;99.90
8914;DHT22;4492;48.736;9.092;2023-09-19T04:38:04;14.50;99.90
8914;DHT22;4492;48.736;9.092;2023-09-19T04:40:31;14.50;99.90
8914;DHT22;4492;48.736;9.092;2023-09-19T04:42:58;14.60;99.90
8914;DHT22;4492;48.736;9.092;2023-09-19T04:45:24;14.60;99.90
8914;DHT22;4492;48.736;9.092;2023-09-19T04:47:50;14.70;99.90
8914;DHT22;4492;48.736;9.092;2023-09-19T04:50:15;14.70;99.90
8914;DHT22;4492;48.736;9.092;2023-09-19T04:52:43;14.80;99.90
8914;DHT22;4492;48.736;9.092;2023-09-19T04:55:14;14.80;99.90
8914;DHT22;4492;48.736;9.092;2023-09-19T04:57:52;14.80;99.90
8914;DHT22;4492;48.736;9.092;2023-09-19T05:00:20;14.80;99.90
8914;DHT22;4492;48.736;9.092;2023-09-19T05:02:52;14.80;99.90
8914;DHT22;4492;48.736;9.092;2023-09-19T05:05:19;14.80;99.90
8914;DHT22;4492;48.736;9.092;2023-09-19T05:07:45;14.80;99.90
8914;DHT22;4492;48.736;9.092;2023-09-19T05:10:11;14.70;99.90
8914;DHT22;4492;48.736;9.092;2023-09-19T05:12:38;14.80;99.90
8914;DHT22;4492;48.736;9.092;2023-09-19T05:15:04;14.70;99.90
8914;DHT22;4492;48.736;9.092;2023-09-19T05:17:30;14.60;99.90
8914;DHT22;4492;48.736;9.092;2023-09-19T05:19:57;14.60;99.90
8914;DHT22;4492;48.736;9.092;2023-09-19T05:22:23;14.60;99.90
8914;DHT22;4492;48.736;9.092;2023-09-19T05:24:50;14.50;99.90
8914;DHT22;4492;48.736;9.092;2023-09-19T05:27:16;14.50;99.90
8914;DHT22;4492;48.736;9.092;2023-09-19T05:29:43;14.50;99.90
8914;DHT22;4492;48.736;9.092;2023-09-19T05:32:10;14.50;99.90
8914;DHT22;4492;48.736;9.092;2023-09-19T05:34:36;14.50;99.90
8914;DHT22;4492;48.736;9.092;2023-09-19T05:37:02;14.50;99.90
8914;DHT22;4492;48.736;9.092;2023-09-19T05:39:27;14.50;99.90
8914;DHT22;4492;48.736;9.092;2023-09-19T05:41:53;14.60;99.90
8914;DHT22;4492;48.736;9.092;2023-09-19T05:44:18;14.60;99.90
8914;DHT22;4492;48.736;9.092;2023-09-19T05:46:44;14.70;99.90
8914;DHT22;4492;48.736;9.092;2023-09-19T05:49:11;14.80;99.90
8914;DHT22;4492;48.736;9.092;2023-09-19T05:51:36;14.80;99.90
8914;DHT22;4492;48.736;9.092;2023-09-19T05:54:02;14.90;99.90
8914;DHT22;4492;48.736;9.092;2023-09-19T05:56:30;14.90;99.90
8914;DHT22;4492;48.736;9.092;2023-09-19T05:58:56;14.80;99.90
8914;DHT22;4492;48.736;9.092;2023-09-19T06:01:22;14.60;99.90
8914;DHT22;4492;48.736;9.092;2023-09-19T06:03:48;14.50;99.90
8914;DHT22;4492;48.736;9.092;2023-09-19T06:06:14;14.40;99.90
8914;DHT22;4492;48.736;9.092;2023-09-19T06:08:39;14.30;99.90
8914;DHT22;4492;48.736;9.092;2023-09-19T06:11:05;14.30;99.90
8914;DHT22;4492;48.736;9.092;2023-09-19T06:13:34;14.20;99.90
8914;DHT22;4492;48.736;9.092;2023-09-19T06:16:00;14.20;99.90
8914;DHT22;4492;48.736;9.092;2023-09-19T06:18:30;14.10;99.90
8914;DHT22;4492;48.736;9.092;2023-09-19T06:20:59;14.00;99.90
8914;DHT22;4492;48.736;9.092;2023-09-19T06:23:25;14.00;99.90
8914;DHT22;4492;48.736;9.092;2023-09-19T06:25:52;13.90;99.90
8914;DHT22;4492;48.736;9.092;2023-09-19T06:28:19;14.00;99.90
8914;DHT22;4492;48.736;9.092;2023-09-19T06:30:49;14.00;99.90
8914;DHT22;4492;48.736;9.092;2023-09-19T06:33:15;14.00;99.90
8914;DHT22;4492;48.736;9.092;2023-09-19T06:35:41;14.00;99.90
8914;DHT22;4492;48.736;9.092;2023-09-19T06:38:07;14.00;99.90
8914;DHT22;4492;48.736;9.092;2023-09-19T06:40:34;14.00;99.90
8914;DHT22;4492;48.736;9.092;2023-09-19T06:43:00;14.00;99.90
8914;DHT22;4492;48.736;9.092;2023-09-19T06:45:27;14.10;99.90
8914;DHT22;4492;48.736;9.092;2023-09-19T06:47:53;14.10;99.90
8914;DHT22;4492;48.736;9.092;2023-09-19T06:50:23;14.20;99.90
8914;DHT22;4492;48.736;9.092;2023-09-19T06:52:50;14.30;99.90
8914;DHT22;4492;48.736;9.092;2023-09-19T06:55:17;14.40;99.90
8914;DHT22;4492;48.736;9.092;2023-09-19T06:57:44;14.50;99.90
8914;DHT22;4492;48.736;9.092;2023-09-19T07:00:11;14.50;99.90
8914;DHT22;4492;48.736;9.092;2023-09-19T07:03:01;14.60;99.90
8914;DHT22;4492;48.736;9.092;2023-09-19T07:05:29;14.70;99.90
8914;DHT22;4492;48.736;9.092;2023-09-19T07:07:56;14.80;99.90
8914;DHT22;4492;48.736;9.092;2023-09-19T07:10:24;14.90;99.90
8914;DHT22;4492;48.736;9.092;2023-09-19T07:13:01;14.90;99.90
8914;DHT22;4492;48.736;9.092;2023-09-19T07:15:28;15.00;99.90
8914;DHT22;4492;48.736;9.092;2023-09-19T07:17:56;15.10;99.90
8914;DHT22;4492;48.736;9.092;2023-09-19T07:20:23;15.10;99.90
8914;DHT22;4492;48.736;9.092;2023-09-19T07:22:50;15.20;99.90
8914;DHT22;4492;48.736;9.092;2023-09-19T07:25:16;15.20;99.90
8914;DHT22;4492;48.736;9.092;2023-09-19T07:27:42;15.30;99.90
8914;DHT22;4492;48.736;9.092;2023-09-19T07:30:09;15.20;99.90
8914;DHT22;4492;48.736;9.092;2023-09-19T07:32:35;15.30;99.90
8914;DHT22;4492;48.736;9.092;2023-09-19T07:35:04;15.40;99.90
8914;DHT22;4492;48.736;9.092;2023-09-19T07:37:33;15.40;99.90
8914;DHT22;4492;48.736;9.092;2023-09-19T07:40:02;15.50;99.90
8914;DHT22;4492;48.736;9.092;2023-09-19T07:42:35;15.60;99.90
8914;DHT22;4492;48.736;9.092;2023-09-19T07:45:02;15.60;99.90
8914;DHT22;4492;48.736;9.092;2023-09-19T07:47:28;15.70;99.90
8914;DHT22;4492;48.736;9.092;2023-09-19T07:49:55;15.70;99.90
8914;DHT22;4492;48.736;9.092;2023-09-19T07:52:21;15.80;99.90
8914;DHT22;4492;48.736;9.092;2023-09-19T07:54:48;15.80;99.90
8914;DHT22;4492;48.736;9.092;2023-09-19T07:57:15;15.80;99.90
8914;DHT22;4492;48.736;9.092;2023-09-19T07:59:41;15.90;99.90
8914;DHT22;4492;48.736;9.092;2023-09-19T08:02:07;15.90;99.90
8914;DHT22;4492;48.736;9.092;2023-09-19T08:04:35;16.00;99.90
8914;DHT22;4492;48.736;9.092;2023-09-19T08:07:00;16.10;99.90
8914;DHT22;4492;48.736;9.092;2023-09-19T08:09:28;16.20;99.90
8914;DHT22;4492;48.736;9.092;2023-09-19T08:11:58;16.40;99.90
8914;DHT22;4492;48.736;9.092;2023-09-19T08:14:24;16.50;99.90
8914;DHT22;4492;48.736;9.092;2023-09-19T08:16:51;16.60;99.90
8914;DHT22;4492;48.736;9.092;2023-09-19T08:19:16;16.70;99.90
8914;DHT22;4492;48.736;9.092;2023-09-19T08:21:42;16.80;99.90
8914;DHT22;4492;48.736;9.092;2023-09-19T08:24:12;16.80;99.90
8914;DHT22;4492;48.736;9.092;2023-09-19T08:26:37;16.90;99.90
8914;DHT22;4492;48.736;9.092;2023-09-19T08:29:03;17.00;99.90
8914;DHT22;4492;48.736;9.092;2023-09-19T08:31:30;16.80;99.90
8914;DHT22;4492;48.736;9.092;2023-09-19T08:33:56;17.10;99.90
8914;DHT22;4492;48.736;9.092;2023-09-19T08:36:21;17.20;99.90
8914;DHT22;4492;48.736;9.092;2023-09-19T08:38:47;17.30;99.90
8914;DHT22;4492;48.736;9.092;2023-09-19T08:41:17;17.40;99.90
8914;DHT22;4492;48.736;9.092;2023-09-19T08:43:42;17.60;99.90
8914;DHT22;4492;48.736;9.092;2023-09-19T08:46:14;17.60;99.90
8914;DHT22;4492;48.736;9.092;2023-09-19T08:49:05;17.60;99.90
8914;DHT22;4492;48.736;9.092;2023-09-19T08:51:41;17.60;99.90
8914;DHT22;4492;48.736;9.092;2023-09-19T08:54:17;17.60;99.90
8914;DHT22;4492;48.736;9.092;2023-09-19T08:56:48;17.40;99.90
8914;DHT22;4492;48.736;9.092;2023-09-19T08:59:15;17.20;99.90
8914;DHT22;4492;48.736;9.092;2023-09-19T09:01:43;17.20;99.90
8914;DHT22;4492;48.736;9.092;2023-09-19T09:04:09;17.10;99.90
8914;DHT22;4492;48.736;9.092;2023-09-19T09:06:38;17.10;99.90
8914;DHT22;4492;48.736;9.092;2023-09-19T09:09:05;17.20;99.90
8914;DHT22;4492;48.736;9.092;2023-09-19T09:11:33;17.20;99.90
8914;DHT22;4492;48.736;9.092;2023-09-19T09:13:58;17.30;99.90
8914;DHT22;4492;48.736;9.092;2023-09-19T09:16:24;17.50;99.90
8914;DHT22;4492;48.736;9.092;2023-09-19T09:18:51;17.80;99.90
8914;DHT22;4492;48.736;9.092;2023-09-19T09:21:18;17.60;99.90
8914;DHT22;4492;48.736;9.092;2023-09-19T09:23:44;17.60;99.90
8914;DHT22;4492;48.736;9.092;2023-09-19T09:26:09;17.50;99.90
8914;DHT22;4492;48.736;9.092;2023-09-19T09:28:35;17.40;99.90
8914;DHT22;4492;48.736;9.092;2023-09-19T09:31:22;17.40;99.90
8914;DHT22;4492;48.736;9.092;2023-09-19T09:33:55;17.30;99.90
8914;DHT22;4492;48.736;9.092;2023-09-19T09:36:39;17.30;99.90
8914;DHT22;4492;48.736;9.092;2023-09-19T09:39:06;17.50;99.90
8914;DHT22;4492;48.736;9.092;2023-09-19T09:41:42;17.70;99.90
8914;DHT22;4492;48.736;9.092;2023-09-19T09:44:16;17.80;99.90
8914;DHT22;4492;48.736;9.092;2023-09-19T09:46:47;17.90;99.90
8914;DHT22;4492;48.736;9.092;2023-09-19T09:49:26;18.00;99.90
8914;DHT22;4492;48.736;9.092;2023-09-19T09:52:05;18.10;99.90
8914;DHT22;4492;48.736;9.092;2023-09-19T09:54:33;18.20;99.90
8914;DHT22;4492;48.736;9.092;2023-09-19T09:57:05;18.30;99.90
8914;DHT22;4492;48.736;9.092;2023-09-19T09:59:53;18.60;99.90
8914;DHT22;4492;48.736;9.092;2023-09-19T10:02:21;18.80;99.90
8914;DHT22;4492;48.736;9.092;2023-09-19T10:04:53;18.80;99.90
8914;DHT22;4492;48.736;9.092;2023-09-19T10:07:52;18.80;99.90
8914;DHT22;4492;48.736;9.092;2023-09-19T10:10:37;18.70;99.90
8914;DHT22;4492;48.736;9.092;2023-09-19T10:13:06;18.80;99.90
8914;DHT22;4492;48.736;9.092;2023-09-19T10:15:33;19.00;99.90
8914;DHT22;4492;48.736;9.092;2023-09-19T10:18:01;19.10;99.90
8914;DHT22;4492;48.736;9.092;2023-09-19T10:20:28;19.20;99.90
8914;DHT22;4492;48.736;9.092;2023-09-19T10:23:06;19.50;99.90
8914;DHT22;4492;48.736;9.092;2023-09-19T10:25:38;19.60;99.90
8914;DHT22;4492;48.736;9.092;2023-09-19T10:28:06;19.80;97.90
8914;DHT22;4492;48.736;9.092;2023-09-19T10:30:46;19.90;97.90
8914;DHT22;4492;48.736;9.092;2023-09-19T10:33:14;20.00;97.30
8914;DHT22;4492;48.736;9.092;2023-09-19T10:35:43;20.20;97.60
8914;DHT22;4492;48.736;9.092;2023-09-19T10:38:15;20.40;97.40
8914;DHT22;4492;48.736;9.092;2023-09-19T10:40:42;20.40;97.00
8914;DHT22;4492;48.736;9.092;2023-09-19T10:43:17;20.20;97.40
8914;DHT22;4492;48.736;9.092;2023-09-19T10:45:47;20.00;97.90
8914;DHT22;4492;48.736;9.092;2023-09-19T10:48:16;19.90;98.00
8914;DHT22;4492;48.736;9.092;2023-09-19T10:51:22;20.00;97.00
8914;DHT22;4492;48.736;9.092;2023-09-19T10:53:55;20.20;95.80
8914;DHT22;4492;48.736;9.092;2023-09-19T10:56:32;20.20;96.70
8914;DHT22;4492;48.736;9.092;2023-09-19T10:59:09;20.10;96.90
8914;DHT22;4492;48.736;9.092;2023-09-19T11:01:56;20.00;96.60
8914;DHT22;4492;48.736;9.092;2023-09-19T11:04:33;19.90;97.10
8914;DHT22;4492;48.736;9.092;2023-09-19T11:07:06;19.90;97.10
8914;DHT22;4492;48.736;9.092;2023-09-19T11:12:11;20.00;97.20
8914;DHT22;4492;48.736;9.092;2023-09-19T11:14:38;20.10;96.90
8914;DHT22;4492;48.736;9.092;2023-09-19T11:30:41;19.30;96.60
8914;DHT22;4492;48.736;9.092;2023-09-19T11:33:20;19.30;96.10
8914;DHT22;4492;48.736;9.092;2023-09-19T11:36:14;19.20;96.40
8914;DHT22;4492;48.736;9.092;2023-09-19T11:46:33;19.20;96.20
8914;DHT22;4492;48.736;9.092;2023-09-19T11:49:09;19.20;96.40
8914;DHT22;4492;48.736;9.092;2023-09-19T11:51:55;19.20;96.90
8914;DHT22;4492;48.736;9.092;2023-09-19T11:54:21;19.20;96.90
8914;DHT22;4492;48.736;9.092;2023-09-19T11:56:56;19.30;96.50
8914;DHT22;4492;48.736;9.092;2023-09-19T11:59:27;19.30;96.90
8914;DHT22;4492;48.736;9.092;2023-09-19T12:02:04;19.40;96.80
8914;DHT22;4492;48.736;9.092;2023-09-19T12:04:37;19.50;97.00
8914;DHT22;4492;48.736;9.092;2023-09-19T12:07:13;19.40;96.20
8914;DHT22;4492;48.736;9.092;2023-09-19T12:09:49;19.20;96.40
8914;DHT22;4492;48.736;9.092;2023-09-19T12:12:26;19.10;97.10
8914;DHT22;4492;48.736;9.092;2023-09-19T12:14:57;19.00;97.20
8914;DHT22;4492;48.736;9.092;2023-09-19T12:17:24;19.00;96.90
8914;DHT22;4492;48.736;9.092;2023-09-19T12:19:55;19.20;96.60
8914;DHT22;4492;48.736;9.092;2023-09-19T12:22:20;19.50;96.60
8914;DHT22;4492;48.736;9.092;2023-09-19T12:24:46;19.70;97.20
8914;DHT22;4492;48.736;9.092;2023-09-19T12:27:13;19.90;96.50
8914;DHT22;4492;48.736;9.092;2023-09-19T12:29:46;20.10;96.70
8914;DHT22;4492;48.736;9.092;2023-09-19T12:32:14;20.30;96.00
8914;DHT22;4492;48.736;9.092;2023-09-19T12:34:42;20.20;96.00
8914;DHT22;4492;48.736;9.092;2023-09-19T12:37:12;20.00;96.50
8914;DHT22;4492;48.736;9.092;2023-09-19T12:39:44;20.00;96.70
8914;DHT22;4492;48.736;9.092;2023-09-19T12:42:22;20.10;95.70
8914;DHT22;4492;48.736;9.092;2023-09-19T12:44:50;20.00;95.80
8914;DHT22;4492;48.736;9.092;2023-09-19T12:47:23;19.90;95.50
8914;DHT22;4492;48.736;9.092;2023-09-19T12:52:40;20.00;96.20
8914;DHT22;4492;48.736;9.092;2023-09-19T12:55:06;20.10;96.30
8914;DHT22;4492;48.736;9.092;2023-09-19T12:57:35;20.00;96.40
8914;DHT22;4492;48.736;9.092;2023-09-19T13:00:02;20.00;96.80
8914;DHT22;4492;48.736;9.092;2023-09-19T13:02:31;20.20;96.40
8914;DHT22;4492;48.736;9.092;2023-09-19T13:04:56;20.20;96.00
8914;DHT22;4492;48.736;9.092;2023-09-19T13:07:44;20.20;95.50
8914;DHT22;4492;48.736;9.092;2023-09-19T13:10:11;20.60;95.60
8914;DHT22;4492;48.736;9.092;2023-09-19T13:12:41;20.70;94.90
8914;DHT22;4492;48.736;9.092;2023-09-19T13:15:12;20.70;94.60
8914;DHT22;4492;48.736;9.092;2023-09-19T13:17:49;20.80;94.90
8914;DHT22;4492;48.736;9.092;2023-09-19T13:20:25;20.80;94.80
8914;DHT22;4492;48.736;9.092;2023-09-19T13:22:55;20.70;94.90
8914;DHT22;4492;48.736;9.092;2023-09-19T13:25:24;20.50;95.50
8914;DHT22;4492;48.736;9.092;2023-09-19T13:27:51;20.40;95.90
8914;DHT22;4492;48.736;9.092;2023-09-19T13:30:20;20.30;96.20
8914;DHT22;4492;48.736;9.092;2023-09-19T13:32:46;20.20;95.90
8914;DHT22;4492;48.736;9.092;2023-09-19T13:35:13;20.30;95.80
8914;DHT22;4492;48.736;9.092;2023-09-19T13:37:39;20.30;95.30
8914;DHT22;4492;48.736;9.092;2023-09-19T13:40:09;20.60;95.10
8914;DHT22;4492;48.736;9.092;2023-09-19T13:42:36;20.80;93.70
8914;DHT22;4492;48.736;9.092;2023-09-19T13:45:05;21.00;93.50
8914;DHT22;4492;48.736;9.092;2023-09-19T13:47:31;20.90;93.40
8914;DHT22;4492;48.736;9.092;2023-09-19T13:49:58;21.00;93.70
8914;DHT22;4492;48.736;9.092;2023-09-19T13:52:24;21.00;93.60
8914;DHT22;4492;48.736;9.092;2023-09-19T13:54:53;21.00;94.10
8914;DHT22;4492;48.736;9.092;2023-09-19T13:57:19;20.80;93.40
8914;DHT22;4492;48.736;9.092;2023-09-19T13:59:44;20.80;93.70
8914;DHT22;4492;48.736;9.092;2023-09-19T14:02:10;21.00;93.40
8914;DHT22;4492;48.736;9.092;2023-09-19T14:04:35;21.20;94.00
8914;DHT22;4492;48.736;9.092;2023-09-19T14:07:01;21.40;93.40
8914;DHT22;4492;48.736;9.092;2023-09-19T14:09:27;21.60;92.60
8914;DHT22;4492;48.736;9.092;2023-09-19T14:11:53;21.60;90.80
8914;DHT22;4492;48.736;9.092;2023-09-19T14:14:21;21.70;91.20
8914;DHT22;4492;48.736;9.092;2023-09-19T14:16:47;21.90;90.50
8914;DHT22;4492;48.736;9.092;2023-09-19T14:19:13;21.80;90.70
8914;DHT22;4492;48.736;9.092;2023-09-19T14:21:41;21.80;90.70
8914;DHT22;4492;48.736;9.092;2023-09-19T14:24:07;21.70;91.70
8914;DHT22;4492;48.736;9.092;2023-09-19T14:26:37;21.80;91.70
8914;DHT22;4492;48.736;9.092;2023-09-19T14:29:02;21.70;90.30
8914;DHT22;4492;48.736;9.092;2023-09-19T14:31:28;21.70;89.90
8914;DHT22;4492;48.736;9.092;2023-09-19T14:33:55;21.60;90.10
8914;DHT22;4492;48.736;9.092;2023-09-19T14:36:24;21.60;90.20
8914;DHT22;4492;48.736;9.092;2023-09-19T14:38:52;21.40;90.00
8914;DHT22;4492;48.736;9.092;2023-09-19T14:41:22;21.40;90.30
8914;DHT22;4492;48.736;9.092;2023-09-19T14:43:48;21.40;90.00
8914;DHT22;4492;48.736;9.092;2023-09-19T14:46:13;21.60;89.30
8914;DHT22;4492;48.736;9.092;2023-09-19T14:48:39;21.70;88.10
8914;DHT22;4492;48.736;9.092;2023-09-19T14:51:06;21.70;88.50
8914;DHT22;4492;48.736;9.092;2023-09-19T14:53:37;21.50;89.60
8914;DHT22;4492;48.736;9.092;2023-09-19T14:56:08;21.40;90.10
8914;DHT22;4492;48.736;9.092;2023-09-19T14:58:34;21.40;88.90
8914;DHT22;4492;48.736;9.092;2023-09-19T15:01:10;21.30;90.40
8914;DHT22;4492;48.736;9.092;2023-09-19T15:03:36;21.30;90.40
8914;DHT22;4492;48.736;9.092;2023-09-19T15:06:03;21.30;90.60
8914;DHT22;4492;48.736;9.092;2023-09-19T15:08:33;21.20;90.40
8914;DHT22;4492;48.736;9.092;2023-09-19T15:11:09;21.20;90.40
8914;DHT22;4492;48.736;9.092;2023-09-19T15:13:36;21.30;90.40
8914;DHT22;4492;48.736;9.092;2023-09-19T15:16:03;21.30;90.50
8914;DHT22;4492;48.736;9.092;2023-09-19T15:18:29;21.30;90.10
8914;DHT22;4492;48.736;9.092;2023-09-19T15:20:56;21.30;90.50
8914;DHT22;4492;48.736;9.092;2023-09-19T15:23:22;21.30;90.40
8914;DHT22;4492;48.736;9.092;2023-09-19T15:25:49;21.20;90.00
8914;DHT22;4492;48.736;9.092;2023-09-19T15:28:14;21.10;90.00
8914;DHT22;4492;48.736;9.092;2023-09-19T15:30:40;21.10;89.10
8914;DHT22;4492;48.736;9.092;2023-09-19T15:33:06;21.00;89.70
8914;DHT22;4492;48.736;9.092;2023-09-19T15:35:31;20.90;90.20
8914;DHT22;4492;48.736;9.092;2023-09-19T15:37:57;20.90;89.30
8914;DHT22;4492;48.736;9.092;2023-09-19T15:40:25;20.90;90.00
8914;DHT22;4492;48.736;9.092;2023-09-19T15:42:51;21.00;90.30
8914;DHT22;4492;48.736;9.092;2023-09-19T15:45:16;20.90;90.60
8914;DHT22;4492;48.736;9.092;2023-09-19T15:47:44;20.90;90.60
8914;DHT22;4492;48.736;9.092;2023-09-19T15:50:11;21.00;90.60
8914;DHT22;4492;48.736;9.092;2023-09-19T15:52:39;21.00;90.00
8914;DHT22;4492;48.736;9.092;2023-09-19T15:55:05;21.00;90.10
8914;DHT22;4492;48.736;9.092;2023-09-19T15:57:32;21.00;90.10
8914;DHT22;4492;48.736;9.092;2023-09-19T15:59:59;20.90;90.10
8914;DHT22;4492;48.736;9.092;2023-09-19T16:02:25;20.90;90.40
8914;DHT22;4492;48.736;9.092;2023-09-19T16:04:54;21.00;90.80
8914;DHT22;4492;48.736;9.092;2023-09-19T16:07:19;21.00;92.80
8914;DHT22;4492;48.736;9.092;2023-09-19T16:09:45;21.20;91.30
8914;DHT22;4492;48.736;9.092;2023-09-19T16:12:10;21.40;90.40
8914;DHT22;4492;48.736;9.092;2023-09-19T16:14:36;21.60;90.90
8914;DHT22;4492;48.736;9.092;2023-09-19T16:17:03;21.80;90.00
8914;DHT22;4492;48.736;9.092;2023-09-19T16:19:29;21.80;89.80
8914;DHT22;4492;48.736;9.092;2023-09-19T16:21:54;21.80;89.70
8914;DHT22;4492;48.736;9.092;2023-09-19T16:24:21;21.80;89.70
8914;DHT22;4492;48.736;9.092;2023-09-19T16:26:47;21.50;90.10
8914;DHT22;4492;48.736;9.092;2023-09-19T16:29:14;21.30;90.50
8914;DHT22;4492;48.736;9.092;2023-09-19T16:31:40;21.20;90.60
8914;DHT22;4492;48.736;9.092;2023-09-19T16:34:06;21.10;90.80
8914;DHT22;4492;48.736;9.092;2023-09-19T16:36:32;21.20;90.80
8914;DHT22;4492;48.736;9.092;2023-09-19T16:38:58;20.90;91.00
8914;DHT22;4492;48.736;9.092;2023-09-19T16:41:24;20.80;91.00
8914;DHT22;4492;48.736;9.092;2023-09-19T16:43:50;20.70;91.60
8914;DHT22;4492;48.736;9.092;2023-09-19T16:46:16;20.50;91.80
8914;DHT22;4492;48.736;9.092;2023-09-19T16:48:43;20.30;92.00
8914;DHT22;4492;48.736;9.092;2023-09-19T16:51:11;20.20;92.20